Time;durP1;ratioP1;P1;durP2;ratioP2;P2;SDS_P1;SDS_P2;PMS_P1;PMS_P2;Temp;Humidity;BMP_temperature;BMP_pressure;BME280_temperature;BME280_humidity;BME280_pressure;Samples;Min_cycle;Max_cycle;Signal;HPM_P1;HPM_P2
2022/02/16 00:00:08;;;;;;;;;;;;;;;;;;1000159;29;836;-41
2022/02/16 00:00:42;;;;;;;;;;;;;;;;;;1000121;29;916;-40
2022/02/16 00:01:12;;;;;;;;;;;;;;;;;;999947;29;829;-41
2022/02/16 00:01:42;;;;;;;;;;;;;;;;;;1000170;29;968;-40
2022/02/16 00:02:13;;;;;;;;;;;;;;;;;;999814;29;1185;-41
2022/02/16 00:02:43;;;;;;;;;;;;;;;;;;1000108;29;999;-40
2022/02/16 00:03:13;;;;;;;;;;;;;;;;;;999957;29;966;-40
2022/02/16 00:03:44;;;;;;;;;;;;;;;;;;999934;29;888;-40
2022/02/16 00:04:14;;;;;;;;;;;;;;;;;;1000003;29;959;-41
2022/02/16 00:04:44;;;;;;;;;;;;;;;;;;999848;29;986;-42
2022/02/16 00:05:17;;;;;;;;;;;;;;;;;;1000044;29;817;-42
2022/02/16 00:05:48;;;;;;;;;;;;;;;;;;1000045;29;904;-40
2022/02/16 00:06:18;;;;;;;;;;;;;;;;;;999891;29;963;-40
2022/02/16 00:06:48;;;;;;;;;;;;;;;;;;1000101;29;863;-40
2022/02/16 00:07:19;;;;;;;;;;;;;;;;;;999817;29;876;-38
2022/02/16 00:07:49;;;;;;;;;;;;;;;;;;1000154;29;932;-40
2022/02/16 00:08:20;;;;;;;;;;;;;;;;;;999945;29;948;-40
2022/02/16 00:08:50;;;;;;;;;;;;;;;;;;999864;29;987;-40
2022/02/16 00:09:21;;;;;;;;;;;;;;;;;;1000138;29;923;-40
2022/02/16 00:09:51;;;;;;;;;;;;;;;;;;999896;29;829;-40
2022/02/16 00:10:22;;;;;;;;;;;;;;;;;;1000131;29;950;-40
2022/02/16 00:10:52;;;;;;;;;;;;;;;;;;999863;29;1080;-40
2022/02/16 00:11:23;;;;;;;;;;;;;;;;;;999961;29;939;-40
2022/02/16 00:11:53;;;;;;;;;;;;;;;;;;1000132;29;935;-39
2022/02/16 00:12:24;;;;;;;;;;;;;;;;;;999859;29;936;-39
2022/02/16 00:12:54;;;;;;;;;;;;;;;;;;1000102;29;951;-40
2022/02/16 00:13:24;;;;;;;;;;;;;;;;;;999864;29;1300;-37
2022/02/16 00:13:55;;;;;;;;;;;;;;;;;;1000055;29;864;-39
2022/02/16 00:14:25;;;;;;;;;;;;;;;;;;1000042;29;996;-39
2022/02/16 00:14:55;;;;;;;;;;;;;;;;;;999855;29;853;-40
2022/02/16 00:15:28;;;;;;;;;;;;;;;;;;1000070;29;936;-40
2022/02/16 00:15:59;;;;;;;;;;;;;;;;;;999944;29;1916;-40
2022/02/16 00:16:30;;;;;;;;;;;;;;;;;;999753;29;962;-41
2022/02/16 00:17:00;;;;;;;;;;;;;;;;;;1000094;29;911;-43
2022/02/16 00:17:31;;;;;;;;;;;;;;;;;;999454;29;885;-40
2022/02/16 00:18:03;;;;;;;;;;;;;;;;;;999784;29;1017;-41
2022/02/16 00:18:34;;;;;;;;;;;;;;;;;;999819;29;829;-40
2022/02/16 00:19:04;;;;;;;;;;;;;;;;;;1000028;29;1079;-40
2022/02/16 00:19:35;;;;;;;;;;;;;;;;;;999789;29;904;-42
2022/02/16 00:20:06;;;;;;;;;;;;;;;;;;1000079;29;844;-40
2022/02/16 00:20:36;;;;;;;;;;;;;;;;;;999962;29;940;-40
2022/02/16 00:21:07;;;;;;;;;;;;;;;;;;1000060;29;885;-40
2022/02/16 00:21:37;;;;;;;;;;;;;;;;;;999908;29;872;-40
2022/02/16 00:22:08;;;;;;;;;;;;;;;;;;999834;29;979;-40
2022/02/16 00:22:39;;;;;;;;;;;;;;;;;;1000100;29;947;-41
2022/02/16 00:23:10;;;;;;;;;;;;;;;;;;999993;29;981;-40
2022/02/16 00:23:40;;;;;;;;;;;;;;;;;;999919;29;893;-43
2022/02/16 00:24:10;;;;;;;;;;;;;;;;;;999899;29;949;-40
2022/02/16 00:24:41;;;;;;;;;;;;;;;;;;999717;29;901;-40
2022/02/16 00:25:11;;;;;;;;;;;;;;;;;;1000033;29;934;-40
2022/02/16 00:25:41;;;;;;;;;;;;;;;;;;999662;29;1019;-38
2022/02/16 00:26:12;;;;;;;;;;;;;;;;;;999957;29;928;-39
2022/02/16 00:26:43;;;;;;;;;;;;;;;;;;999929;29;1203;-39
2022/02/16 00:27:13;;;;;;;;;;;;;;;;;;999831;29;873;-40
2022/02/16 00:27:43;;;;;;;;;;;;;;;;;;1000069;29;1089;-39
2022/02/16 00:28:17;;;;;;;;;;;;;;;;;;999759;29;912;-41
2022/02/16 00:28:48;;;;;;;;;;;;;;;;;;999868;29;971;-39
2022/02/16 00:29:19;;;;;;;;;;;;;;;;;;1000125;29;943;-39
2022/02/16 00:29:49;;;;;;;;;;;;;;;;;;999699;29;924;-39
2022/02/16 00:30:20;;;;;;;;;;;;;;;;;;1000148;29;944;-39
2022/02/16 00:30:50;;;;;;;;;;;;;;;;;;999674;29;973;-40
2022/02/16 00:31:20;;;;;;;;;;;;;;;;;;1000207;29;809;-41
2022/02/16 00:31:51;;;;;;;;;;;;;;;;;;999851;29;997;-39
2022/02/16 00:32:22;;;;;;;;;;;;;;;;;;999938;29;833;-39
2022/02/16 00:32:52;;;;;;;;;;;;;;;;;;1000008;29;896;-39
2022/02/16 00:33:23;;;;;;;;;;;;;;;;;;999866;29;786;-39
2022/02/16 00:33:53;;;;;;;;;;;;;;;;;;999884;29;904;-39
2022/02/16 00:34:24;;;;;;;;;;;;;;;;;;999959;29;978;-39
2022/02/16 00:34:54;;;;;;;;;;;;;;;;;;995529;29;1124;-40
2022/02/16 00:35:24;;;;;;;;;;;;;;;;;;996026;29;1028;-40
2022/02/16 00:35:55;;;;;;;;;;;;;;;;;;995662;29;1961;-40
2022/02/16 00:36:25;;;;;;;;;;;;;;;;;;995832;29;1026;-40
2022/02/16 00:36:56;;;;;;;;;;;;;;;;;;999830;29;1046;-40
2022/02/16 00:37:26;;;;;;;;;;;;;;;;;;999987;29;801;-40
2022/02/16 00:37:57;;;;;;;;;;;;;;;;;;999949;29;967;-39
2022/02/16 00:38:27;;;;;;;;;;;;;;;;;;995602;29;951;-39
2022/02/16 00:38:58;;;;;;;;;;;;;;;;;;995902;29;919;-39
2022/02/16 00:39:28;;;;;;;;;;;;;;;;;;995722;29;838;-39
2022/02/16 00:39:59;;;;;;;;;;;;;;;;;;996074;29;1069;-39
2022/02/16 00:40:29;;;;;;;;;;;;;;;;;;999701;29;904;-40
2022/02/16 00:41:00;;;;;;;;;;;;;;;;;;1000098;29;939;-40
2022/02/16 00:41:30;;;;;;;;;;;;;;;;;;999875;29;982;-39
2022/02/16 00:42:01;;;;;;;;;;;;;;;;;;999960;29;872;-40
2022/02/16 00:42:31;;;;;;;;;;;;;;;;;;999882;29;1080;-40
2022/02/16 00:43:01;;;;;;;;;;;;;;;;;;999901;29;976;-40
2022/02/16 00:43:32;;;;;;;;;;;;;;;;;;999909;29;782;-39
2022/02/16 00:44:03;;;;;;;;;;;;;;;;;;995739;29;1176;-40
2022/02/16 00:44:34;;;;;;;;;;;;;;;;;;995525;29;1211;-40
2022/02/16 00:45:05;;;;;;;;;;;;;;;;;;995964;29;1117;-39
2022/02/16 00:45:35;;;;;;;;;;;;;;;;;;995565;29;919;-39
2022/02/16 00:46:06;;;;;;;;;;;;;;;;;;996098;29;809;-39
2022/02/16 00:46:37;;;;;;;;;;;;;;;;;;995724;29;931;-39
2022/02/16 00:47:07;;;;;;;;;;;;;;;;;;995770;29;860;-41
2022/02/16 00:47:39;;;;;;;;;;;;;;;;;;996002;29;1086;-40
2022/02/16 00:48:09;;;;;;;;;;;;;;;;;;992005;29;1074;-39
2022/02/16 00:48:41;;;;;;;;;;;;;;;;;;992055;29;1381;-40
2022/02/16 00:49:12;;;;;;;;;;;;;;;;;;991924;29;1366;-38
2022/02/16 00:49:42;;;;;;;;;;;;;;;;;;992327;29;794;-39
2022/02/16 00:50:13;;;;;;;;;;;;;;;;;;992071;29;1005;-40
2022/02/16 00:50:44;;;;;;;;;;;;;;;;;;992019;29;881;-40
2022/02/16 00:51:15;;;;;;;;;;;;;;;;;;995883;29;848;-41
2022/02/16 00:51:46;;;;;;;;;;;;;;;;;;992219;29;1224;-41
2022/02/16 00:52:18;;;;;;;;;;;;;;;;;;995764;29;821;-41
2022/02/16 00:52:48;;;;;;;;;;;;;;;;;;995819;29;921;-39
2022/02/16 00:53:19;;;;;;;;;;;;;;;;;;996012;29;825;-40
2022/02/16 00:53:49;;;;;;;;;;;;;;;;;;999898;29;979;-40
2022/02/16 00:54:19;;;;;;;;;;;;;;;;;;995676;29;1200;-40
2022/02/16 00:54:50;;;;;;;;;;;;;;;;;;995467;29;1102;-38
2022/02/16 00:55:21;;;;;;;;;;;;;;;;;;992105;29;1188;-38
2022/02/16 00:55:52;;;;;;;;;;;;;;;;;;991804;29;1908;-39
2022/02/16 00:56:22;;;;;;;;;;;;;;;;;;995977;29;904;-40
2022/02/16 00:56:53;;;;;;;;;;;;;;;;;;991938;29;1402;-40
2022/02/16 00:57:29;;;;;;;;;;;;;;;;;;991953;29;1287;-40
2022/02/16 00:58:00;;;;;;;;;;;;;;;;;;992046;29;1289;-40
2022/02/16 00:58:32;;;;;;;;;;;;;;;;;;990805;29;1143;-40
2022/02/16 00:59:03;;;;;;;;;;;;;;;;;;988732;29;956;-42
2022/02/16 00:59:34;;;;;;;;;;;;;;;;;;988408;29;1331;-43
2022/02/16 01:00:10;;;;;;;;;;;;;;;;;;991838;29;1625;-40
2022/02/16 01:00:50;;;;;;;;;;;;;;;;;;988323;30;1529;-40
2022/02/16 01:01:21;;;;;;;;;;;;;;;;;;990052;29;2100;-40
2022/02/16 01:01:51;;;;;;;;;;;;;;;;;;989617;29;1376;-40
2022/02/16 01:02:22;;;;;;;;;;;;;;;;;;988446;29;1395;-40
2022/02/16 01:02:53;;;;;;;;;;;;;;;;;;987861;30;1190;-40
2022/02/16 01:03:23;;;;;;;;;;;;;;;;;;984502;30;900;-43
2022/02/16 01:03:54;;;;;;;;;;;;;;;;;;984388;30;1226;-40
2022/02/16 01:04:26;;;;;;;;;;;;;;;;;;988545;29;1336;-40
2022/02/16 01:04:59;;;;;;;;;;;;;;;;;;988334;30;1206;-41
2022/02/16 01:05:30;;;;;;;;;;;;;;;;;;988101;29;893;-41
2022/02/16 01:06:01;;;;;;;;;;;;;;;;;;988839;29;1011;-40
2022/02/16 01:06:31;;;;;;;;;;;;;;;;;;991758;29;1311;-40
2022/02/16 01:07:04;;;;;;;;;;;;;;;;;;992116;29;937;-40
2022/02/16 01:07:35;;;;;;;;;;;;;;;;;;995775;29;1469;-42
2022/02/16 01:08:09;;;;;;;;;;;;;;;;;;992566;29;1317;-41
2022/02/16 01:08:40;;;;;;;;;;;;;;;;;;995924;29;971;-40
2022/02/16 01:09:10;;;;;;;;;;;;;;;;;;995043;29;1006;-41
2022/02/16 01:09:41;;;;;;;;;;;;;;;;;;992011;29;861;-41
2022/02/16 01:10:12;;;;;;;;;;;;;;;;;;992046;29;1209;-41
2022/02/16 01:10:49;;;;;;;;;;;;;;;;;;991705;29;1221;-41
2022/02/16 01:11:23;;;;;;;;;;;;;;;;;;992087;29;1393;-41
2022/02/16 01:11:54;;;;;;;;;;;;;;;;;;991745;29;1335;-40
2022/02/16 01:12:30;;;;;;;;;;;;;;;;;;990507;29;1525;-41
2022/02/16 01:13:00;;;;;;;;;;;;;;;;;;991305;29;1232;-42
2022/02/16 01:13:32;;;;;;;;;;;;;;;;;;988010;30;1218;-42
2022/02/16 01:14:03;;;;;;;;;;;;;;;;;;984476;30;1170;-41
2022/02/16 01:14:38;;;;;;;;;;;;;;;;;;984646;30;961;-41
2022/02/16 01:15:18;;;;;;;;;;;;;;;;;;986412;30;877;-44
2022/02/16 01:15:49;;;;;;;;;;;;;;;;;;993612;29;1989;-42
2022/02/16 01:16:20;;;;;;;;;;;;;;;;;;993436;29;924;-42
2022/02/16 01:16:54;;;;;;;;;;;;;;;;;;995607;29;1309;-40
2022/02/16 01:17:45;;;;;;;;;;;;;;;;;;981131;30;1202;-42
2022/02/16 01:18:33;;;;;;;;;;;;;;;;;;979503;29;1667;-43
2022/02/16 01:19:04;;;;;;;;;;;;;;;;;;988235;30;1551;-40
2022/02/16 01:19:34;;;;;;;;;;;;;;;;;;987987;30;1158;-42
2022/02/16 01:20:06;;;;;;;;;;;;;;;;;;984875;30;1209;-40
2022/02/16 01:20:38;;;;;;;;;;;;;;;;;;988203;30;849;-43
2022/02/16 01:21:13;;;;;;;;;;;;;;;;;;989146;29;850;-41
2022/02/16 01:21:45;;;;;;;;;;;;;;;;;;989106;29;1177;-40
2022/02/16 01:22:15;;;;;;;;;;;;;;;;;;995563;29;1393;-40
2022/02/16 01:22:45;;;;;;;;;;;;;;;;;;995794;29;840;-44
2022/02/16 01:23:19;;;;;;;;;;;;;;;;;;995655;29;1275;-40
2022/02/16 01:23:50;;;;;;;;;;;;;;;;;;991288;29;1597;-40
2022/02/16 01:24:21;;;;;;;;;;;;;;;;;;991931;29;1330;-41
2022/02/16 01:24:51;;;;;;;;;;;;;;;;;;988089;29;1533;-41
2022/02/16 01:25:23;;;;;;;;;;;;;;;;;;988514;29;1482;-41
2022/02/16 01:25:54;;;;;;;;;;;;;;;;;;987674;30;1209;-40
2022/02/16 01:26:45;;;;;;;;;;;;;;;;;;986850;29;1236;-40
2022/02/16 01:27:20;;;;;;;;;;;;;;;;;;987556;30;1397;-40
2022/02/16 01:27:54;;;;;;;;;;;;;;;;;;995390;29;1280;-41
2022/02/16 01:28:28;;;;;;;;;;;;;;;;;;991835;29;1124;-40
2022/02/16 01:28:59;;;;;;;;;;;;;;;;;;989111;29;1379;-40
2022/02/16 01:29:35;;;;;;;;;;;;;;;;;;986863;30;1188;-41
2022/02/16 01:30:21;;;;;;;;;;;;;;;;;;990984;29;1418;-41
2022/02/16 01:30:57;;;;;;;;;;;;;;;;;;991493;29;1468;-42
2022/02/16 01:31:34;;;;;;;;;;;;;;;;;;991706;29;1330;-40
2022/02/16 01:32:05;;;;;;;;;;;;;;;;;;990504;29;1171;-40
2022/02/16 01:32:35;;;;;;;;;;;;;;;;;;985135;30;1300;-41
2022/02/16 01:33:05;;;;;;;;;;;;;;;;;;991865;29;1552;-40
2022/02/16 01:33:55;;;;;;;;;;;;;;;;;;994323;29;950;-39
2022/02/16 01:34:27;;;;;;;;;;;;;;;;;;994287;29;1388;-41
2022/02/16 01:34:57;;;;;;;;;;;;;;;;;;992954;29;928;-41
2022/02/16 01:35:28;;;;;;;;;;;;;;;;;;988230;30;1202;-42
2022/02/16 01:35:58;;;;;;;;;;;;;;;;;;990172;29;1920;-41
2022/02/16 01:36:29;;;;;;;;;;;;;;;;;;995714;29;1249;-42
2022/02/16 01:37:00;;;;;;;;;;;;;;;;;;991614;29;1347;-41
2022/02/16 01:37:31;;;;;;;;;;;;;;;;;;991910;29;1351;-42
2022/02/16 01:38:02;;;;;;;;;;;;;;;;;;988477;29;1115;-42
2022/02/16 01:38:35;;;;;;;;;;;;;;;;;;988231;29;1458;-39
2022/02/16 01:39:25;;;;;;;;;;;;;;;;;;991472;29;1255;-41
2022/02/16 01:39:56;;;;;;;;;;;;;;;;;;990981;29;1178;-40
2022/02/16 01:40:27;;;;;;;;;;;;;;;;;;994611;29;1266;-39
2022/02/16 01:41:01;;;;;;;;;;;;;;;;;;991713;29;1440;-39
2022/02/16 01:41:33;;;;;;;;;;;;;;;;;;992586;29;1364;-40
2022/02/16 01:42:14;;;;;;;;;;;;;;;;;;991600;29;1193;-40
2022/02/16 01:42:46;;;;;;;;;;;;;;;;;;991753;29;1266;-40
2022/02/16 01:43:25;;;;;;;;;;;;;;;;;;994719;29;1057;-40
2022/02/16 01:43:59;;;;;;;;;;;;;;;;;;991634;29;996;-40
2022/02/16 01:44:30;;;;;;;;;;;;;;;;;;989467;29;1296;-40
2022/02/16 01:45:03;;;;;;;;;;;;;;;;;;995582;29;1353;-40
2022/02/16 01:45:35;;;;;;;;;;;;;;;;;;995424;29;971;-41
2022/02/16 01:46:06;;;;;;;;;;;;;;;;;;995754;29;991;-42
2022/02/16 01:46:49;;;;;;;;;;;;;;;;;;992089;29;1311;-43
2022/02/16 01:47:20;;;;;;;;;;;;;;;;;;991718;29;1314;-41
2022/02/16 01:47:54;;;;;;;;;;;;;;;;;;991758;29;1743;-42
2022/02/16 01:48:25;;;;;;;;;;;;;;;;;;990422;29;1466;-40
2022/02/16 01:48:56;;;;;;;;;;;;;;;;;;988566;29;1311;-41
2022/02/16 01:49:32;;;;;;;;;;;;;;;;;;988965;29;1205;-41
2022/02/16 01:50:02;;;;;;;;;;;;;;;;;;987927;30;1175;-40
2022/02/16 01:50:34;;;;;;;;;;;;;;;;;;985135;30;1383;-41
2022/02/16 01:51:04;;;;;;;;;;;;;;;;;;991824;29;1254;-44
2022/02/16 01:51:41;;;;;;;;;;;;;;;;;;988928;29;1133;-41
2022/02/16 01:52:12;;;;;;;;;;;;;;;;;;988049;30;1299;-42
2022/02/16 01:52:47;;;;;;;;;;;;;;;;;;985709;30;1506;-42
2022/02/16 01:53:17;;;;;;;;;;;;;;;;;;988697;29;1268;-42
2022/02/16 01:53:49;;;;;;;;;;;;;;;;;;988917;29;1347;-42
2022/02/16 01:54:20;;;;;;;;;;;;;;;;;;991699;29;904;-39
2022/02/16 01:54:51;;;;;;;;;;;;;;;;;;991939;29;1189;-39
2022/02/16 01:55:23;;;;;;;;;;;;;;;;;;992067;29;1339;-42
2022/02/16 01:55:54;;;;;;;;;;;;;;;;;;991391;29;1911;-42
2022/02/16 01:56:25;;;;;;;;;;;;;;;;;;991990;29;1005;-41
2022/02/16 01:56:56;;;;;;;;;;;;;;;;;;988110;29;1843;-42
2022/02/16 01:57:34;;;;;;;;;;;;;;;;;;995614;29;1007;-41
2022/02/16 01:58:10;;;;;;;;;;;;;;;;;;991767;29;1212;-41
2022/02/16 01:58:59;;;;;;;;;;;;;;;;;;988165;30;1334;-42
2022/02/16 01:59:49;;;;;;;;;;;;;;;;;;992880;29;1081;-41
2022/02/16 02:00:40;;;;;;;;;;;;;;;;;;996743;29;923;-42
2022/02/16 02:01:10;;;;;;;;;;;;;;;;;;995495;29;1416;-41
2022/02/16 02:01:42;;;;;;;;;;;;;;;;;;995703;29;1400;-42
2022/02/16 02:02:15;;;;;;;;;;;;;;;;;;995328;29;1324;-42
2022/02/16 02:02:47;;;;;;;;;;;;;;;;;;994742;29;1308;-42
2022/02/16 02:03:32;;;;;;;;;;;;;;;;;;994368;29;996;-41
2022/02/16 02:04:09;;;;;;;;;;;;;;;;;;991761;29;1272;-41
2022/02/16 02:04:39;;;;;;;;;;;;;;;;;;990437;29;1579;-40
2022/02/16 02:05:14;;;;;;;;;;;;;;;;;;991847;29;973;-40
2022/02/16 02:05:45;;;;;;;;;;;;;;;;;;992141;29;1296;-41
2022/02/16 02:06:15;;;;;;;;;;;;;;;;;;992325;29;1273;-40
2022/02/16 02:06:46;;;;;;;;;;;;;;;;;;995443;29;1164;-41
2022/02/16 02:07:17;;;;;;;;;;;;;;;;;;991635;29;1165;-40
2022/02/16 02:07:48;;;;;;;;;;;;;;;;;;988211;30;1496;-41
2022/02/16 02:08:24;;;;;;;;;;;;;;;;;;984284;30;1660;-41
2022/02/16 02:08:55;;;;;;;;;;;;;;;;;;985283;30;1333;-40
2022/02/16 02:09:25;;;;;;;;;;;;;;;;;;988941;29;917;-41
2022/02/16 02:09:56;;;;;;;;;;;;;;;;;;992596;29;896;-41
2022/02/16 02:10:26;;;;;;;;;;;;;;;;;;995605;29;955;-41
2022/02/16 02:10:57;;;;;;;;;;;;;;;;;;999460;29;1042;-40
2022/02/16 02:11:28;;;;;;;;;;;;;;;;;;999543;29;774;-41
2022/02/16 02:12:08;;;;;;;;;;;;;;;;;;995425;29;1239;-42
2022/02/16 02:12:44;;;;;;;;;;;;;;;;;;995393;29;1417;-42
2022/02/16 02:13:16;;;;;;;;;;;;;;;;;;991731;29;1174;-42
2022/02/16 02:13:54;;;;;;;;;;;;;;;;;;991854;29;1389;-41
2022/02/16 02:14:30;;;;;;;;;;;;;;;;;;993585;29;1168;-41
2022/02/16 02:15:08;;;;;;;;;;;;;;;;;;991445;29;1317;-42
2022/02/16 02:15:47;;;;;;;;;;;;;;;;;;988020;30;1990;-42
2022/02/16 02:16:29;;;;;;;;;;;;;;;;;;991321;29;924;-42
2022/02/16 02:16:59;;;;;;;;;;;;;;;;;;990344;29;1330;-41
2022/02/16 02:17:29;;;;;;;;;;;;;;;;;;993191;29;1201;-41
2022/02/16 02:18:01;;;;;;;;;;;;;;;;;;991705;29;1485;-41
2022/02/16 02:18:31;;;;;;;;;;;;;;;;;;988158;29;1366;-43
2022/02/16 02:19:03;;;;;;;;;;;;;;;;;;987877;29;1206;-42
2022/02/16 02:19:33;;;;;;;;;;;;;;;;;;988166;29;774;-41
2022/02/16 02:20:05;;;;;;;;;;;;;;;;;;988439;29;1170;-42
2022/02/16 02:20:40;;;;;;;;;;;;;;;;;;992102;29;970;-41
2022/02/16 02:21:11;;;;;;;;;;;;;;;;;;991587;29;1236;-41
2022/02/16 02:21:45;;;;;;;;;;;;;;;;;;992627;29;1072;-41
2022/02/16 02:22:15;;;;;;;;;;;;;;;;;;995412;29;1232;-41
2022/02/16 02:22:46;;;;;;;;;;;;;;;;;;996126;29;936;-42
2022/02/16 02:23:16;;;;;;;;;;;;;;;;;;995561;29;1335;-41
2022/02/16 02:23:47;;;;;;;;;;;;;;;;;;995280;29;1337;-40
2022/02/16 02:24:18;;;;;;;;;;;;;;;;;;991956;29;1324;-42
2022/02/16 02:24:48;;;;;;;;;;;;;;;;;;991314;29;1264;-41
2022/02/16 02:25:19;;;;;;;;;;;;;;;;;;991879;29;1315;-41
2022/02/16 02:25:51;;;;;;;;;;;;;;;;;;991733;29;1216;-41
2022/02/16 02:26:22;;;;;;;;;;;;;;;;;;991440;29;1275;-41
2022/02/16 02:26:52;;;;;;;;;;;;;;;;;;995480;29;951;-41
2022/02/16 02:27:22;;;;;;;;;;;;;;;;;;991480;29;908;-42
2022/02/16 02:27:53;;;;;;;;;;;;;;;;;;991921;29;976;-41
2022/02/16 02:28:25;;;;;;;;;;;;;;;;;;995581;29;988;-41
2022/02/16 02:28:57;;;;;;;;;;;;;;;;;;999230;29;883;-41
2022/02/16 02:29:31;;;;;;;;;;;;;;;;;;995581;29;1635;-41
2022/02/16 02:30:05;;;;;;;;;;;;;;;;;;991512;29;1216;-43
2022/02/16 02:30:36;;;;;;;;;;;;;;;;;;991784;29;980;-41
2022/02/16 02:31:06;;;;;;;;;;;;;;;;;;991814;29;1185;-41
2022/02/16 02:31:37;;;;;;;;;;;;;;;;;;987760;29;854;-40
2022/02/16 02:32:08;;;;;;;;;;;;;;;;;;991937;29;1007;-41
2022/02/16 02:32:40;;;;;;;;;;;;;;;;;;991689;29;1351;-43
2022/02/16 02:33:10;;;;;;;;;;;;;;;;;;992092;29;1294;-40
2022/02/16 02:33:40;;;;;;;;;;;;;;;;;;995398;29;1128;-41
2022/02/16 02:34:11;;;;;;;;;;;;;;;;;;995481;29;960;-41
2022/02/16 02:34:42;;;;;;;;;;;;;;;;;;991548;29;1262;-40
2022/02/16 02:35:14;;;;;;;;;;;;;;;;;;991858;29;857;-42
2022/02/16 02:35:45;;;;;;;;;;;;;;;;;;995255;29;1986;-42
2022/02/16 02:36:16;;;;;;;;;;;;;;;;;;991671;29;1260;-41
2022/02/16 02:36:46;;;;;;;;;;;;;;;;;;991551;29;865;-40
2022/02/16 02:37:17;;;;;;;;;;;;;;;;;;995674;29;1175;-40
2022/02/16 02:37:47;;;;;;;;;;;;;;;;;;995395;29;758;-39
2022/02/16 02:38:18;;;;;;;;;;;;;;;;;;995559;29;1046;-40
2022/02/16 02:38:48;;;;;;;;;;;;;;;;;;991530;29;1300;-40
2022/02/16 02:39:19;;;;;;;;;;;;;;;;;;995483;29;998;-40
2022/02/16 02:39:49;;;;;;;;;;;;;;;;;;995605;29;1537;-40
2022/02/16 02:40:19;;;;;;;;;;;;;;;;;;991624;29;1315;-40
2022/02/16 02:40:51;;;;;;;;;;;;;;;;;;996288;29;969;-40
2022/02/16 02:41:22;;;;;;;;;;;;;;;;;;992862;29;929;-40
2022/02/16 02:41:53;;;;;;;;;;;;;;;;;;989564;29;972;-41
2022/02/16 02:42:24;;;;;;;;;;;;;;;;;;989158;30;947;-40
2022/02/16 02:42:54;;;;;;;;;;;;;;;;;;985588;30;1293;-42
2022/02/16 02:43:25;;;;;;;;;;;;;;;;;;989185;29;1159;-41
2022/02/16 02:43:56;;;;;;;;;;;;;;;;;;989295;29;888;-38
2022/02/16 02:44:26;;;;;;;;;;;;;;;;;;993000;29;1177;-40
2022/02/16 02:44:57;;;;;;;;;;;;;;;;;;993008;29;1295;-41
2022/02/16 02:45:27;;;;;;;;;;;;;;;;;;992844;29;1202;-43
2022/02/16 02:46:01;;;;;;;;;;;;;;;;;;989241;29;1313;-40
2022/02/16 02:46:38;;;;;;;;;;;;;;;;;;989156;29;1322;-40
2022/02/16 02:47:09;;;;;;;;;;;;;;;;;;990613;29;861;-41
2022/02/16 02:47:41;;;;;;;;;;;;;;;;;;990720;29;1230;-42
2022/02/16 02:48:13;;;;;;;;;;;;;;;;;;993467;29;1473;-40
2022/02/16 02:48:44;;;;;;;;;;;;;;;;;;992719;29;1574;-40
2022/02/16 02:49:15;;;;;;;;;;;;;;;;;;989215;30;1216;-41
2022/02/16 02:49:46;;;;;;;;;;;;;;;;;;989365;29;1341;-39
2022/02/16 02:50:17;;;;;;;;;;;;;;;;;;989600;29;1345;-43
2022/02/16 02:50:51;;;;;;;;;;;;;;;;;;992673;29;1217;-40
2022/02/16 02:51:22;;;;;;;;;;;;;;;;;;993337;29;1676;-41
2022/02/16 02:51:53;;;;;;;;;;;;;;;;;;992818;29;1647;-41
2022/02/16 02:52:24;;;;;;;;;;;;;;;;;;989219;30;1177;-41
2022/02/16 02:52:54;;;;;;;;;;;;;;;;;;989141;30;933;-41
2022/02/16 02:53:25;;;;;;;;;;;;;;;;;;989310;29;850;-42
2022/02/16 02:53:55;;;;;;;;;;;;;;;;;;993010;29;939;-41
2022/02/16 02:54:27;;;;;;;;;;;;;;;;;;992950;29;1308;-41
2022/02/16 02:54:58;;;;;;;;;;;;;;;;;;996516;29;1378;-43
2022/02/16 02:55:29;;;;;;;;;;;;;;;;;;996745;29;1096;-40
2022/02/16 02:55:59;;;;;;;;;;;;;;;;;;996397;29;1919;-41
2022/02/16 02:56:30;;;;;;;;;;;;;;;;;;993036;29;1349;-40
2022/02/16 02:57:01;;;;;;;;;;;;;;;;;;992641;29;1020;-41
2022/02/16 02:57:33;;;;;;;;;;;;;;;;;;993280;29;1356;-41
2022/02/16 02:58:03;;;;;;;;;;;;;;;;;;993082;29;1179;-40
2022/02/16 02:58:35;;;;;;;;;;;;;;;;;;992860;29;1216;-41
2022/02/16 02:59:05;;;;;;;;;;;;;;;;;;989160;29;1226;-41
2022/02/16 02:59:36;;;;;;;;;;;;;;;;;;992672;29;1316;-41
2022/02/16 03:00:07;;;;;;;;;;;;;;;;;;989404;29;1272;-43
2022/02/16 03:00:38;;;;;;;;;;;;;;;;;;989097;30;1564;-38
2022/02/16 03:01:08;;;;;;;;;;;;;;;;;;988970;30;1249;-42
2022/02/16 03:01:42;;;;;;;;;;;;;;;;;;986243;30;1358;-41
2022/02/16 03:02:13;;;;;;;;;;;;;;;;;;989384;29;1288;-39
2022/02/16 03:02:43;;;;;;;;;;;;;;;;;;993475;29;857;-40
2022/02/16 03:03:14;;;;;;;;;;;;;;;;;;992855;29;1169;-40
2022/02/16 03:03:45;;;;;;;;;;;;;;;;;;988978;30;1128;-42
2022/02/16 03:04:15;;;;;;;;;;;;;;;;;;989323;30;980;-40
2022/02/16 03:04:46;;;;;;;;;;;;;;;;;;988906;29;877;-41
2022/02/16 03:05:16;;;;;;;;;;;;;;;;;;993039;29;912;-40
2022/02/16 03:05:47;;;;;;;;;;;;;;;;;;988970;29;1174;-40
2022/02/16 03:06:17;;;;;;;;;;;;;;;;;;989189;30;2234;-41
2022/02/16 03:06:48;;;;;;;;;;;;;;;;;;989270;30;892;-39
2022/02/16 03:07:19;;;;;;;;;;;;;;;;;;988983;29;1693;-39
2022/02/16 03:07:50;;;;;;;;;;;;;;;;;;993249;29;933;-39
2022/02/16 03:08:20;;;;;;;;;;;;;;;;;;996549;29;1085;-39
2022/02/16 03:08:51;;;;;;;;;;;;;;;;;;992857;29;1276;-40
2022/02/16 03:09:22;;;;;;;;;;;;;;;;;;989171;30;1185;-40
2022/02/16 03:09:52;;;;;;;;;;;;;;;;;;989037;30;1284;-40
2022/02/16 03:10:23;;;;;;;;;;;;;;;;;;989288;29;857;-39
2022/02/16 03:10:53;;;;;;;;;;;;;;;;;;992860;29;806;-40
2022/02/16 03:11:23;;;;;;;;;;;;;;;;;;989100;30;1585;-40
2022/02/16 03:11:56;;;;;;;;;;;;;;;;;;992865;29;1352;-42
2022/02/16 03:12:27;;;;;;;;;;;;;;;;;;993044;29;1295;-39
2022/02/16 03:12:57;;;;;;;;;;;;;;;;;;992881;29;1170;-39
2022/02/16 03:13:32;;;;;;;;;;;;;;;;;;989055;30;1029;-40
2022/02/16 03:14:27;;;;;;;;;;;;;;;;;;985175;30;1218;-39
2022/02/16 03:14:58;;;;;;;;;;;;;;;;;;989161;30;1173;-40
2022/02/16 03:15:28;;;;;;;;;;;;;;;;;;989055;30;1284;-41
2022/02/16 03:15:59;;;;;;;;;;;;;;;;;;989148;29;1911;-41
2022/02/16 03:16:30;;;;;;;;;;;;;;;;;;989539;29;1616;-41
2022/02/16 03:17:03;;;;;;;;;;;;;;;;;;988863;30;1379;-40
2022/02/16 03:17:33;;;;;;;;;;;;;;;;;;985647;30;1198;-41
2022/02/16 03:18:04;;;;;;;;;;;;;;;;;;989303;29;1340;-41
2022/02/16 03:18:34;;;;;;;;;;;;;;;;;;989155;30;846;-41
2022/02/16 03:19:05;;;;;;;;;;;;;;;;;;992897;29;1181;-41
2022/02/16 03:19:36;;;;;;;;;;;;;;;;;;992879;29;936;-41
2022/02/16 03:20:07;;;;;;;;;;;;;;;;;;996595;29;992;-40
2022/02/16 03:20:38;;;;;;;;;;;;;;;;;;996677;29;1334;-40
2022/02/16 03:21:08;;;;;;;;;;;;;;;;;;996511;29;856;-41
2022/02/16 03:21:39;;;;;;;;;;;;;;;;;;993014;29;932;-40
2022/02/16 03:22:09;;;;;;;;;;;;;;;;;;988899;30;1390;-40
2022/02/16 03:22:40;;;;;;;;;;;;;;;;;;989247;30;1034;-42
2022/02/16 03:23:11;;;;;;;;;;;;;;;;;;989241;29;953;-40
2022/02/16 03:23:41;;;;;;;;;;;;;;;;;;992861;29;829;-40
2022/02/16 03:24:12;;;;;;;;;;;;;;;;;;989138;29;1335;-40
2022/02/16 03:24:44;;;;;;;;;;;;;;;;;;985285;30;1111;-40
2022/02/16 03:25:14;;;;;;;;;;;;;;;;;;985522;30;1179;-40
2022/02/16 03:25:45;;;;;;;;;;;;;;;;;;981630;30;1186;-40
2022/02/16 03:26:15;;;;;;;;;;;;;;;;;;985667;30;847;-41
2022/02/16 03:26:46;;;;;;;;;;;;;;;;;;989229;29;1335;-42
2022/02/16 03:27:19;;;;;;;;;;;;;;;;;;989452;29;1528;-42
2022/02/16 03:28:09;;;;;;;;;;;;;;;;;;989047;30;1354;-40
2022/02/16 03:28:40;;;;;;;;;;;;;;;;;;985528;30;1332;-41
2022/02/16 03:29:31;;;;;;;;;;;;;;;;;;988890;30;1138;-41
2022/02/16 03:30:03;;;;;;;;;;;;;;;;;;987993;30;1338;-44
2022/02/16 03:30:40;;;;;;;;;;;;;;;;;;992412;29;1670;-42
2022/02/16 03:31:10;;;;;;;;;;;;;;;;;;992908;29;964;-41
2022/02/16 03:31:46;;;;;;;;;;;;;;;;;;990330;29;1503;-44
2022/02/16 03:32:17;;;;;;;;;;;;;;;;;;992987;29;1030;-40
2022/02/16 03:32:48;;;;;;;;;;;;;;;;;;992841;29;995;-41
2022/02/16 03:33:19;;;;;;;;;;;;;;;;;;989467;29;1150;-41
2022/02/16 03:33:49;;;;;;;;;;;;;;;;;;992995;29;1077;-41
2022/02/16 03:34:19;;;;;;;;;;;;;;;;;;996493;29;2590;-40
2022/02/16 03:34:52;;;;;;;;;;;;;;;;;;992617;29;1333;-40
2022/02/16 03:35:22;;;;;;;;;;;;;;;;;;992806;29;1093;-43
2022/02/16 03:35:54;;;;;;;;;;;;;;;;;;988914;29;1978;-41
2022/02/16 03:36:26;;;;;;;;;;;;;;;;;;989365;29;1188;-40
2022/02/16 03:36:56;;;;;;;;;;;;;;;;;;989315;29;973;-40
2022/02/16 03:37:27;;;;;;;;;;;;;;;;;;989426;29;1554;-40
2022/02/16 03:37:58;;;;;;;;;;;;;;;;;;996494;29;1129;-40
2022/02/16 03:38:28;;;;;;;;;;;;;;;;;;996755;29;1429;-40
2022/02/16 03:38:59;;;;;;;;;;;;;;;;;;996477;29;1319;-41
2022/02/16 03:39:33;;;;;;;;;;;;;;;;;;996020;29;1252;-41
2022/02/16 03:40:04;;;;;;;;;;;;;;;;;;993310;29;903;-41
2022/02/16 03:40:35;;;;;;;;;;;;;;;;;;992837;29;1600;-43
2022/02/16 03:41:06;;;;;;;;;;;;;;;;;;992518;29;1258;-42
2022/02/16 03:41:36;;;;;;;;;;;;;;;;;;989176;30;1406;-41
2022/02/16 03:42:07;;;;;;;;;;;;;;;;;;988863;30;1218;-42
2022/02/16 03:42:38;;;;;;;;;;;;;;;;;;989276;29;1070;-44
2022/02/16 03:43:10;;;;;;;;;;;;;;;;;;989222;29;1374;-44
2022/02/16 03:43:41;;;;;;;;;;;;;;;;;;993216;29;1103;-42
2022/02/16 03:44:11;;;;;;;;;;;;;;;;;;992846;29;1305;-40
2022/02/16 03:44:47;;;;;;;;;;;;;;;;;;993430;29;1127;-40
2022/02/16 03:45:21;;;;;;;;;;;;;;;;;;992667;29;1397;-41
2022/02/16 03:45:57;;;;;;;;;;;;;;;;;;989167;29;1384;-44
2022/02/16 03:46:29;;;;;;;;;;;;;;;;;;986652;30;1189;-43
2022/02/16 03:46:59;;;;;;;;;;;;;;;;;;986182;30;1355;-41
2022/02/16 03:47:30;;;;;;;;;;;;;;;;;;985585;30;1318;-41
2022/02/16 03:48:00;;;;;;;;;;;;;;;;;;989095;29;1382;-41